.
WxDataArchive / Data Records for 2016-06-09
2016-06-08 June 2016 2016-06-10

Data Records for Thursday, 09 June 2016

Time	Temp	Chill	HIndex	Humid	Dewpt	 Wind 	HiWind	WindDir	Rain 	Barom
-----	----	-----	------	-----	-----	------	------	-------	-----	-----
00:00	52.2	52.2	52.2	64	40.4	0	0	---	0.00	29.986 
00:05	52.0	52.0	52.0	66	41.0	0	0	---	0.00	29.986 
00:10	51.9	51.9	51.9	66	40.9	0	0	---	0.00	29.986 
00:15	51.7	51.7	51.7	67	41.1	0	0	---	0.00	29.977 
00:20	51.4	51.4	51.4	68	41.2	0	0	---	0.00	29.977 
00:25	51.3	51.3	51.3	69	41.5	0	0	---	0.00	29.977 
00:30	51.1	51.1	51.1	69	41.3	0	0	---	0.00	29.979 
00:35	51.0	51.0	51.0	70	41.6	0	0	---	0.00	29.979 
00:40	50.8	50.8	50.8	70	41.4	0	0	---	0.00	29.979 
00:45	50.7	50.7	50.7	71	41.6	0	0	---	0.00	29.986 
00:50	50.5	50.5	50.5	72	41.8	0	0	---	0.00	29.986 
00:55	50.4	50.4	50.4	73	42.1	0	0	---	0.00	29.986 
01:00	50.2	50.2	50.2	73	41.9	0	0	---	0.00	29.984 
01:05	50.1	50.1	50.1	74	42.1	0	0	---	0.00	29.984 
01:10	50.1	50.1	50.1	74	42.1	0	0	---	0.00	29.984 
01:15	49.9	49.9	49.9	74	41.9	0	0	---	0.00	29.986 
01:20	49.9	49.9	49.9	75	42.3	0	0	---	0.00	29.986 
01:25	49.9	49.9	49.9	75	42.3	0	0	---	0.00	29.986 
01:30	49.9	49.9	49.9	75	42.3	0	0	---	0.00	29.985 
01:35	49.9	49.9	49.9	75	42.3	0	0	---	0.00	29.985 
01:40	49.9	49.9	49.9	75	42.3	0	0	---	0.00	29.985 
01:45	50.1	50.1	50.1	76	42.8	0	0	---	0.00	29.985 
01:50	49.9	49.9	49.9	76	42.6	0	0	---	0.00	29.985 
01:55	49.9	49.9	49.9	75	42.3	0	0	---	0.00	29.985 
02:00	49.8	49.8	49.8	75	42.2	0	0	---	0.00	29.990 
02:05	49.6	49.6	49.6	76	42.3	0	0	---	0.00	29.990 
02:10	49.6	49.6	49.6	76	42.3	0	0	---	0.00	29.990 
02:15	49.5	49.5	49.5	76	42.3	0	0	---	0.00	29.989 
02:20	49.4	49.4	49.4	77	42.5	0	0	---	0.00	29.989 
02:25	49.4	49.4	49.4	77	42.5	0	0	---	0.00	29.989 
02:30	49.2	49.2	49.2	77	42.3	0	0	---	0.00	29.990 
02:35	49.1	49.1	49.1	77	42.2	0	0	---	0.00	29.990 
02:40	49.1	49.1	49.1	78	42.5	0	0	---	0.00	29.990 
02:45	48.9	48.9	48.9	78	42.3	0	0	---	0.00	29.991 
02:50	48.9	48.9	48.9	78	42.3	0	0	---	0.00	29.991 
02:55	48.9	48.9	48.9	79	42.7	0	0	---	0.00	29.991 
03:00	48.8	48.8	48.8	79	42.6	0	0	---	0.00	29.992 
03:05	48.6	48.6	48.6	80	42.7	0	0	---	0.00	29.992 
03:10	48.6	48.6	48.6	80	42.7	0	0	---	0.00	29.992 
03:15	48.5	48.5	48.5	80	42.6	0	0	---	0.00	29.990 
03:20	48.3	48.3	48.3	80	42.4	0	0	---	0.00	29.990 
03:25	48.2	48.2	48.2	80	42.3	0	0	---	0.00	29.990 
03:30	48.2	48.2	48.2	81	42.6	0	0	---	0.00	29.991 
03:35	48.0	48.0	48.0	81	42.5	0	0	---	0.00	29.991 
03:40	47.9	47.9	47.9	81	42.4	0	0	---	0.00	29.991 
03:45	47.7	47.7	47.7	81	42.2	0	0	---	0.00	29.991 
03:50	47.7	47.7	47.7	81	42.2	0	0	---	0.00	29.991 
03:55	47.7	47.7	47.7	82	42.5	0	0	---	0.00	29.991 
04:00	47.6	47.6	47.6	82	42.4	0	0	---	0.00	29.987 
04:05	47.6	47.6	47.6	82	42.4	0	0	---	0.00	29.987 
04:10	47.4	47.4	47.4	83	42.5	0	0	---	0.00	29.987 
04:15	47.3	47.3	47.3	83	42.4	0	0	---	0.00	29.990 
04:20	47.3	47.3	47.3	83	42.4	0	0	---	0.00	29.990 
04:25	47.1	47.1	47.1	83	42.2	0	0	---	0.00	29.990 
04:30	47.1	47.1	47.1	84	42.5	0	0	---	0.00	29.993 
04:35	47.1	47.1	47.1	84	42.5	0	0	---	0.00	29.993 
04:40	47.0	47.0	47.0	84	42.4	0	0	---	0.00	29.993 
04:45	47.0	47.0	47.0	84	42.4	0	0	---	0.00	30.005 
04:50	46.8	46.8	46.8	84	42.2	0	0	---	0.00	30.005 
04:55	46.8	46.8	46.8	84	42.2	0	0	---	0.00	30.005 
05:00	46.8	46.8	46.8	84	42.2	0	0	---	0.00	30.010 
05:05	46.7	46.7	46.7	84	42.1	0	0	---	0.00	30.010 
05:10	46.5	46.5	46.5	85	42.2	0	0	---	0.00	30.010 
05:15	46.4	46.4	46.4	85	42.1	0	0	---	0.00	30.017 
05:20	46.4	46.4	46.4	86	42.4	0	0	---	0.00	30.017 
05:25	46.2	46.2	46.2	86	42.2	0	0	---	0.00	30.017 
05:30	46.2	46.2	46.2	86	42.2	0	0	---	0.00	30.020 
05:35	46.1	46.1	46.1	86	42.1	0	0	---	0.00	30.020 
05:40	46.1	46.1	46.1	87	42.4	0	0	---	0.00	30.020 
05:45	46.1	46.1	46.1	87	42.4	0	0	---	0.00	30.026 
05:50	46.0	46.0	46.0	87	42.4	0	0	---	0.00	30.026 
05:55	46.0	46.0	46.0	87	42.4	0	0	---	0.00	30.026 
06:00	46.0	46.0	46.0	87	42.4	0	0	---	0.00	30.036 
06:05	46.0	46.0	46.0	88	42.6	0	0	---	0.00	30.036 
06:10	46.0	46.0	46.0	88	42.6	0	0	---	0.00	30.036 
06:15	46.0	46.0	46.0	88	42.6	0	0	---	0.00	30.037 
06:20	45.8	45.8	45.8	88	42.5	0	0	---	0.00	30.037 
06:25	45.8	45.8	45.8	88	42.5	0	0	---	0.00	30.037 
06:30	45.8	45.8	45.8	88	42.5	0	0	---	0.00	30.045 
06:35	46.0	46.0	46.0	89	42.9	0	0	---	0.00	30.045 
06:40	46.0	46.0	46.0	89	42.9	0	0	---	0.00	30.045 
06:45	46.1	46.1	46.1	89	43.0	0	0	---	0.00	30.042 
06:50	46.2	46.2	46.2	89	43.1	0	0	---	0.00	30.042 
06:55	46.5	46.5	46.5	90	43.7	0	0	---	0.00	30.042 
07:00	46.8	46.8	46.8	90	44.0	0	0	---	0.00	30.044 
07:05	47.1	47.1	47.1	90	44.3	0	0	---	0.00	30.044 
07:10	47.3	47.3	47.3	90	44.5	0	0	---	0.00	30.044 
07:15	47.9	47.9	47.9	91	45.4	0	0	---	0.00	30.051 
07:20	48.3	48.3	48.3	91	45.8	0	0	---	0.00	30.051 
07:25	48.9	48.9	48.9	91	46.4	0	0	---	0.00	30.051 
07:30	49.5	49.5	49.5	90	46.7	0	0	---	0.00	30.052 
07:35	50.1	50.1	50.1	90	47.3	0	0	---	0.00	30.052 
07:40	50.8	50.8	50.8	88	47.4	0	0	---	0.00	30.052 
07:45	51.6	51.6	51.6	85	47.2	0	0	---	0.00	30.053 
07:50	52.5	52.5	52.5	83	47.5	0	0	---	0.00	30.053 
07:55	54.1	54.1	54.1	77	47.0	0	0	---	0.00	30.053 
08:00	55.4	55.4	55.4	69	45.4	0	1	292	0.00	30.049 
08:05	56.7	56.7	56.7	66	45.5	0	0	---	0.00	30.049 
08:10	57.5	57.5	57.5	65	45.8	0	0	---	0.00	30.049 
08:15	58.7	58.7	58.7	62	45.7	0	1	292	0.00	30.053 
08:20	59.8	59.8	59.8	55	43.6	0	2	292	0.00	30.053 
08:25	60.5	60.5	60.5	53	43.3	0	2	292	0.00	30.053 
08:30	61.2	61.2	61.2	51	42.9	0	1	292	0.00	30.050 
08:35	61.6	61.6	61.6	50	42.8	0	3	292	0.00	30.050 
08:40	61.6	61.6	61.6	49	42.3	0	3	292	0.00	30.050 
08:45	61.6	61.6	61.6	47	41.2	0	1	292	0.00	30.050 
08:50	61.8	61.8	61.8	49	42.4	0	1	292	0.00	30.050 
08:55	61.8	61.8	61.8	50	43.0	0	2	292	0.00	30.050 
09:00	62.0	62.0	62.0	49	42.6	0	2	292	0.00	30.050 
09:05	61.6	61.6	61.6	50	42.8	0	1	292	0.00	30.050 
09:10	61.6	61.6	61.6	50	42.8	0	1	292	0.00	30.050 
09:15	62.0	62.0	62.0	49	42.6	0	1	225	0.00	30.058 
09:20	62.7	62.7	62.7	47	42.2	0	1	225	0.00	30.058 
09:25	63.2	63.2	63.2	47	42.6	1	5	225	0.00	30.058 
09:30	63.4	63.4	63.4	47	42.8	0	1	68	0.00	30.062 
09:35	63.7	63.7	63.7	48	43.6	0	2	68	0.00	30.062 
09:40	63.9	63.9	63.9	46	42.7	0	2	68	0.00	30.062 
09:45	64.2	64.2	64.2	46	43.0	0	4	68	0.00	30.055 
09:50	64.5	64.5	64.5	47	43.8	0	2	68	0.00	30.055 
09:55	65.0	65.0	65.0	46	43.7	0	1	68	0.00	30.055 
10:00	65.8	65.8	65.8	47	45.0	0	1	68	0.00	30.055 
10:05	66.4	66.4	66.4	46	45.0	0	1	68	0.00	30.055 
10:10	66.9	66.9	66.9	43	43.7	0	1	68	0.00	30.055 
10:15	67.4	67.4	67.4	41	42.9	0	1	68	0.00	30.054 
10:20	67.8	67.8	67.8	41	43.2	0	2	68	0.00	30.054 
10:25	67.8	67.8	67.8	43	44.5	0	2	68	0.00	30.054 
10:30	68.1	68.1	68.1	40	42.9	0	1	68	0.00	30.050 
10:35	68.6	68.6	68.6	41	44.0	0	1	180	0.00	30.050 
10:40	69.3	69.3	69.3	42	45.2	0	1	180	0.00	30.050 
10:45	69.6	69.6	69.6	41	44.8	0	1	180	0.00	30.046 
10:50	70.4	70.4	70.4	37	42.9	0	1	180	0.00	30.046 
10:55	70.8	70.8	70.8	38	43.9	0	2	180	0.00	30.046 
11:00	70.9	70.9	70.9	39	44.7	0	2	180	0.00	30.047 
11:05	71.5	71.5	71.5	39	45.2	0	1	180	0.00	30.047 
11:10	71.8	71.8	71.8	39	45.5	0	1	180	0.00	30.047 
11:15	72.1	72.1	72.1	36	43.7	0	3	158	0.00	30.049 
11:20	72.1	72.1	72.1	36	43.7	0	1	158	0.00	30.049 
11:25	71.8	71.8	71.8	35	42.7	0	1	158	0.00	30.049 
11:30	71.6	71.6	71.6	36	43.2	0	1	158	0.00	30.056 
11:35	71.1	71.1	71.1	36	42.8	0	1	158	0.00	30.056 
11:40	71.3	71.3	71.3	36	43.0	0	2	158	0.00	30.056 
11:45	71.3	71.3	71.3	35	42.2	0	3	158	0.00	30.055 
11:50	71.5	71.5	71.5	36	43.1	0	3	158	0.00	30.055 
11:55	71.8	71.8	71.8	41	46.8	0	2	158	0.00	30.055 
12:00	72.3	72.3	72.3	36	43.8	0	1	158	0.00	30.050 
12:05	72.8	72.8	72.8	36	44.3	1	2	158	0.00	30.050 
12:10	73.3	73.3	73.3	34	43.2	0	2	135	0.00	30.050 
12:15	73.7	73.7	73.7	34	43.6	0	4	135	0.00	30.046 
12:20	73.7	73.7	73.7	36	45.1	0	2	135	0.00	30.046 
12:25	73.7	73.7	73.7	41	48.5	0	1	135	0.00	30.046 
12:30	74.0	74.0	74.0	37	46.1	0	1	135	0.00	30.037 
12:35	74.2	74.2	74.2	35	44.8	0	3	135	0.00	30.037 
12:40	74.6	74.6	74.6	36	45.9	1	2	112	0.00	30.037 
12:45	74.2	74.2	74.2	34	44.0	0	1	112	0.00	30.034 
12:50	73.7	73.7	73.7	35	44.3	0	2	112	0.00	30.034 
12:55	73.5	73.5	73.5	36	44.9	0	1	112	0.00	30.034 
13:00	73.3	73.3	73.3	35	44.0	0	1	112	0.00	30.034 
13:05	73.5	73.5	73.5	42	49.0	0	1	112	0.00	30.034 
13:10	74.0	74.0	74.0	40	48.1	0	1	112	0.00	30.034 
13:15	74.4	74.4	74.4	35	44.9	0	3	112	0.00	30.032 
13:20	74.7	74.7	74.7	37	46.7	0	2	112	0.00	30.032 
13:25	75.3	75.3	77.5	38	47.9	0	1	112	0.00	30.032 
13:30	75.4	75.4	77.4	36	46.6	0	1	112	0.00	30.022 
13:35	75.3	75.3	77.5	37	47.2	0	3	112	0.00	30.022 
13:40	75.1	75.1	77.3	35	45.6	0	2	112	0.00	30.022 
13:45	75.1	75.1	77.4	38	47.7	0	1	112	0.00	30.017 
13:50	74.9	74.9	74.9	38	47.6	0	1	112	0.00	30.017 
13:55	74.9	74.9	74.9	35	45.4	0	2	112	0.00	30.017 
14:00	74.9	74.9	74.9	36	46.1	1	4	112	0.00	30.007 
14:05	75.3	75.3	77.5	37	47.2	1	3	112	0.00	30.007 
14:10	75.4	75.4	77.4	36	46.6	0	1	112	0.00	30.007 
14:15	75.6	75.6	77.6	37	47.5	0	2	112	0.00	30.002 
14:20	75.8	75.8	77.6	36	46.9	0	1	112	0.00	30.002 
14:25	76.3	76.3	77.9	39	49.5	0	3	112	0.00	30.002 
14:30	76.8	76.8	77.9	36	47.8	0	1	112	0.00	29.998 
14:35	77.2	77.2	78.2	37	48.9	0	2	112	0.00	29.998 
14:40	77.2	77.2	77.8	31	44.2	0	1	112	0.00	29.998 
14:45	77.2	77.2	78.0	34	46.6	0	1	112	0.00	29.991 
14:50	77.2	77.2	78.2	38	49.6	0	2	112	0.00	29.991 
14:55	77.2	77.2	78.1	35	47.4	1	5	112	0.00	29.991 
15:00	77.2	77.2	77.9	33	45.8	0	2	112	0.00	29.987 
15:05	77.2	77.2	78.1	35	47.4	0	2	112	0.00	29.987 
15:10	77.2	77.2	78.1	35	47.4	0	2	68	0.00	29.987 
15:15	77.0	77.0	78.0	35	47.2	0	2	68	0.00	29.988 
15:20	76.8	76.8	77.9	36	47.8	0	1	68	0.00	29.988 
15:25	76.8	76.8	77.9	35	47.1	0	2	68	0.00	29.988 
15:30	76.7	76.7	77.9	35	47.0	0	2	45	0.00	29.987 
15:35	76.5	76.5	77.8	35	46.8	0	1	45	0.00	29.987 
15:40	76.5	76.5	77.8	36	47.5	0	1	45	0.00	29.987 
15:45	76.5	76.5	77.8	36	47.5	0	1	45	0.00	29.983 
15:50	76.5	76.5	77.9	37	48.3	0	1	45	0.00	29.983 
15:55	76.1	76.1	77.7	37	47.9	0	2	45	0.00	29.983 
16:00	76.3	76.3	77.9	40	50.2	0	0	---	0.00	29.979 
16:05	76.1	76.1	77.7	36	47.2	0	2	45	0.00	29.979 
16:10	76.1	76.1	77.7	37	47.9	0	1	45	0.00	29.979 
16:15	76.0	76.0	77.7	37	47.8	0	2	45	0.00	29.974 
16:20	75.8	75.8	77.6	37	47.7	0	1	45	0.00	29.974 
16:25	75.6	75.6	77.6	39	48.9	0	0	---	0.00	29.974 
16:30	75.6	75.6	77.6	38	48.2	0	1	45	0.00	29.974 
16:35	75.4	75.4	77.6	40	49.4	0	1	45	0.00	29.974 
16:40	75.4	75.4	77.5	38	48.0	0	1	45	0.00	29.974 
16:45	75.4	75.4	77.6	39	48.7	0	2	45	0.00	29.972 
16:50	75.4	75.4	77.5	38	48.0	0	1	45	0.00	29.972 
16:55	75.3	75.3	77.5	39	48.6	0	0	---	0.00	29.972 
17:00	75.3	75.3	77.6	40	49.3	0	0	---	0.00	29.969 
17:05	75.4	75.4	77.6	40	49.4	0	0	---	0.00	29.969 
17:10	75.4	75.4	77.6	39	48.7	0	0	---	0.00	29.969 
17:15	75.6	75.6	77.7	40	49.6	0	1	45	0.00	29.964 
17:20	75.8	75.8	77.7	40	49.7	0	1	45	0.00	29.964 
17:25	75.8	75.8	77.8	41	50.4	0	0	---	0.00	29.964 
17:30	75.8	75.8	77.7	40	49.7	0	1	45	0.00	29.966 
17:35	76.0	76.0	77.9	42	51.2	0	0	---	0.00	29.966 
17:40	76.0	76.0	77.9	41	50.6	0	0	---	0.00	29.966 
17:45	76.0	76.0	77.9	41	50.6	0	1	45	0.00	29.959 
17:50	76.0	76.0	77.9	41	50.6	0	0	---	0.00	29.959 
17:55	76.1	76.1	77.9	42	51.3	0	0	---	0.00	29.959 
18:00	76.3	76.3	77.9	40	50.2	0	1	45	0.00	29.950 
18:05	76.3	76.3	77.9	39	49.5	0	0	---	0.00	29.950 
18:10	76.3	76.3	77.8	38	48.8	0	0	---	0.00	29.950 
18:15	76.1	76.1	77.8	39	49.3	0	0	---	0.00	29.944 
18:20	76.1	76.1	77.8	39	49.3	0	0	---	0.00	29.944 
18:25	76.0	76.0	77.8	39	49.2	0	0	---	0.00	29.944 
18:30	76.0	76.0	77.8	40	49.9	0	0	---	0.00	29.941 
18:35	75.8	75.8	77.8	41	50.4	0	0	---	0.00	29.941 
18:40	75.6	75.6	77.7	40	49.6	0	0	---	0.00	29.941 
18:45	75.4	75.4	77.6	39	48.7	0	0	---	0.00	29.944 
18:50	75.4	75.4	77.6	40	49.4	0	0	---	0.00	29.944 
18:55	75.3	75.3	77.6	40	49.3	0	0	---	0.00	29.944 
19:00	75.3	75.3	77.6	41	50.0	0	0	---	0.00	29.942 
19:05	75.3	75.3	77.6	40	49.3	0	0	---	0.00	29.942 
19:10	75.3	75.3	77.6	41	50.0	0	0	---	0.00	29.942 
19:15	75.4	75.4	77.7	43	51.3	0	0	---	0.00	29.931 
19:20	75.3	75.3	77.6	42	50.6	0	0	---	0.00	29.931 
19:25	75.3	75.3	77.7	43	51.2	0	0	---	0.00	29.931 
19:30	75.3	75.3	77.6	42	50.6	0	0	---	0.00	29.925 
19:35	75.3	75.3	77.6	42	50.6	0	0	---	0.00	29.925 
19:40	75.1	75.1	77.6	42	50.4	0	0	---	0.00	29.925 
19:45	75.1	75.1	77.6	44	51.7	0	0	---	0.00	29.929 
19:50	74.9	74.9	74.9	44	51.5	0	0	---	0.00	29.929 
19:55	74.7	74.7	74.7	43	50.7	0	0	---	0.00	29.929 
20:00	74.6	74.6	74.6	43	50.6	0	0	---	0.00	29.930 
20:05	74.4	74.4	74.4	44	51.0	0	0	---	0.00	29.930 
20:10	74.2	74.2	74.2	45	51.5	0	0	---	0.00	29.930 
20:15	73.9	73.9	73.9	45	51.2	0	0	---	0.00	29.928 
20:20	73.7	73.7	73.7	45	51.0	0	0	---	0.00	29.928 
20:25	73.7	73.7	73.7	45	51.0	0	0	---	0.00	29.928 
20:30	73.5	73.5	73.5	45	50.8	0	0	---	0.00	29.928 
20:35	73.3	73.3	73.3	46	51.3	0	0	---	0.00	29.928 
20:40	73.2	73.2	73.2	47	51.7	0	0	---	0.00	29.928 
20:45	73.0	73.0	73.0	48	52.1	0	0	---	0.00	29.934 
20:50	72.8	72.8	72.8	50	53.1	0	0	---	0.00	29.934 
20:55	72.7	72.7	72.7	50	53.0	0	0	---	0.00	29.934 
21:00	72.5	72.5	72.5	52	53.9	0	0	---	0.00	29.939 
21:05	72.3	72.3	72.3	51	53.1	0	0	---	0.00	29.939 
21:10	72.1	72.1	72.1	53	54.0	0	0	---	0.00	29.939 
21:15	72.0	72.0	72.0	54	54.4	0	0	---	0.00	29.938 
21:20	71.8	71.8	71.8	54	54.2	0	0	---	0.00	29.938 
21:25	71.6	71.6	71.6	53	53.5	0	0	---	0.00	29.938 
21:30	71.5	71.5	71.5	55	54.5	0	0	---	0.00	29.941 
21:35	71.3	71.3	71.3	55	54.3	0	0	---	0.00	29.941 
21:40	70.9	70.9	70.9	57	54.9	0	0	---	0.00	29.941 
21:45	70.8	70.8	70.8	58	55.3	0	0	---	0.00	29.947 
21:50	70.8	70.8	70.8	57	54.8	0	0	---	0.00	29.947 
21:55	70.6	70.6	70.6	58	55.1	0	0	---	0.00	29.947 
22:00	70.6	70.6	70.6	57	54.6	0	0	---	0.00	29.955 
22:05	70.4	70.4	70.4	58	54.9	0	0	---	0.00	29.955 
22:10	70.3	70.3	70.3	58	54.8	0	0	---	0.00	29.955 
22:15	70.3	70.3	70.3	58	54.8	0	0	---	0.00	29.956 
22:20	70.1	70.1	70.1	59	55.1	0	0	---	0.00	29.956 
22:25	70.1	70.1	70.1	60	55.6	0	0	---	0.00	29.956 
22:30	70.1	70.1	70.1	60	55.6	0	0	---	0.00	29.959 
22:35	69.9	69.9	69.9	60	55.4	0	0	---	0.00	29.959 
22:40	69.9	69.9	69.9	62	56.3	0	0	---	0.00	29.959 
22:45	69.9	69.9	69.9	62	56.3	0	0	---	0.00	29.958 
22:50	69.9	69.9	69.9	62	56.3	0	0	---	0.00	29.958 
22:55	69.8	69.8	69.8	62	56.2	0	0	---	0.00	29.958 
23:00	69.6	69.6	69.6	62	56.0	0	0	---	0.00	29.962 
23:05	69.6	69.6	69.6	62	56.0	0	0	---	0.00	29.962 
23:10	69.6	69.6	69.6	62	56.0	0	0	---	0.00	29.962 
23:15	69.6	69.6	69.6	62	56.0	0	1	45	0.00	29.963 
23:20	69.6	69.6	69.6	61	55.5	0	0	---	0.00	29.963 
23:25	69.6	69.6	69.6	61	55.5	0	0	---	0.00	29.963 
23:30	69.6	69.6	69.6	61	55.5	0	0	---	0.00	29.965 
23:35	69.6	69.6	69.6	61	55.5	0	0	---	0.00	29.965 
23:40	69.6	69.6	69.6	61	55.5	0	0	---	0.00	29.965 
23:45	69.4	69.4	69.4	62	55.8	0	0	---	0.00	29.961 
23:50	69.3	69.3	69.3	62	55.7	0	0	---	0.00	29.961 
23:55	69.1	69.1	69.1	62	55.5	0	0	---	0.00	29.961 

CoCoRaHS
IN-AL-39
A2 Web Hosting
Creative Commons License
GoDaddy
search engine by freefind advanced

loaded 2018-11-17 12:30:49 • last modified 2010-11-18 10:43:29
Privacy PolicyDisclaimer
• wx.awcolley.com is powered by PmWiki v.2002016 •
• all content (unless otherwise noted) © 2018 A W Colley